KHOP/HOP METAR and TAF weather

Enter ICAO airport designator
Station Type Date Time Source
KHOP METAR 2022/07/03 13:56 UTC NOAA

KHOP 031356Z VRB06KT 7SM BKN120 27/23 A3005 RMK SLPNO WND DATA ESTMD ALSTG/SLP ESTMD


Station Type Date Time Source
KHOP Decoded METAR 2022/07/03 13:56 UTC NOAA

Fort Campbell U. S. Army Airfield, KY, United States (KHOP) 36-40N 087-30W 174M
Jul 03, 2022 - 09:56 AM EDT / 2022.07.03 1356 UTC
Wind: Variable at 7 MPH (6 KT):0
Visibility: 7 mile(s):0
Sky conditions: mostly cloudy
Temperature: 80 F (27 C)
Dew Point: 73 F (23 C)
Relative Humidity: 78%
Pressure (altimeter): 30.05 in. Hg (1017 hPa)
ob: KHOP 031356Z VRB06KT 7SM BKN120 27/23 A3005 RMK SLPNO WND DATA ESTMD ALSTG/SLP ESTMD
cycle: 14

Station Type Date Time Source
KHOP TAF 2022/07/03 08:24 UTC NOAA

TAF TAF KHOP 030800Z 0308/0414 03006KT 9999 SCT018 OVC020 QNH3003INS
BECMG 0311/0312 VRB06KT 9000 -SHRA SCT008 BKN018 QNH3005INS
TEMPO 0316/0322 05015G30KT 8000 -TSRA SCT015 OVC020CB
BECMG 0322/0323 VRB06KT 9999 NSW SCT020 BKN025 QNH3004INS TX30/0322Z TN23/0310Z

Example: see airport list